createdAt,value
2022-10-05T00:01:58.750Z,7
2022-10-05T00:04:02.912Z,8.1
2022-10-05T00:08:14.069Z,9
2022-10-05T00:10:18.183Z,15
2022-10-05T00:12:22.308Z,8.5
2022-10-05T00:14:26.433Z,12.7
2022-10-05T00:16:30.644Z,7.2
2022-10-05T00:18:34.678Z,10.4
2022-10-05T00:20:41.816Z,7
2022-10-05T00:22:45.958Z,12.9
2022-10-05T00:24:50.101Z,8.4
2022-10-05T00:26:57.821Z,11.1
2022-10-05T00:28:58.346Z,13.5
2022-10-05T00:31:02.468Z,14.4
2022-10-05T00:33:06.598Z,15.9
2022-10-05T00:35:13.723Z,12.2
2022-10-05T00:37:17.849Z,6.5
2022-10-05T00:43:30.255Z,8.4
2022-10-05T00:45:34.400Z,12
2022-10-05T00:47:38.511Z,7.6
2022-10-05T00:49:45.654Z,8.6
2022-10-05T00:51:49.760Z,16.8
2022-10-05T00:53:53.889Z,7.8
2022-10-05T00:56:18.043Z,10.9
2022-10-05T00:58:22.139Z,19.4
2022-10-05T01:00:26.285Z,14.2
2022-10-05T01:02:36.937Z,13.7
2022-10-05T01:04:37.563Z,7.9
2022-10-05T01:06:41.688Z,7.6
2022-10-05T01:08:45.814Z,8.2
2022-10-05T01:10:49.939Z,6.9
2022-10-05T01:12:54.186Z,18
2022-10-05T01:14:58.417Z,10.4
2022-10-05T01:23:17.702Z,11.9
2022-10-05T01:35:45.484Z,8.6
2022-10-05T01:37:49.607Z,7.3
2022-10-05T01:48:13.350Z,13.5
2022-10-05T01:51:20.917Z,9.6
2022-10-05T01:53:25.248Z,7.3
2022-10-05T01:55:29.172Z,17.4
2022-10-05T01:57:33.306Z,12
2022-10-05T01:59:40.423Z,10.8
2022-10-05T02:01:44.556Z,13.8
2022-10-05T02:05:52.816Z,10.2
2022-10-05T02:12:05.191Z,11
2022-10-05T02:16:16.508Z,14.4
2022-10-05T02:18:20.591Z,20
2022-10-05T02:20:24.687Z,7.7
2022-10-05T02:22:28.831Z,9.3
2022-10-05T02:24:33.105Z,9.7
2022-10-05T02:26:37.081Z,18.4
2022-10-05T02:28:44.202Z,10.2
2022-10-05T02:30:48.333Z,9.7
2022-10-05T02:32:52.429Z,8.1
2022-10-05T02:34:56.572Z,8.3
2022-10-05T02:37:00.681Z,13.4
2022-10-05T02:39:04.827Z,11.7
2022-10-05T02:41:08.928Z,16.7
2022-10-05T02:43:16.052Z,15.2
2022-10-05T02:45:20.167Z,14.1
2022-10-05T02:47:24.281Z,10.9
2022-10-05T02:48:27.869Z,14.6
2022-10-05T02:50:31.984Z,12.1
2022-10-05T02:52:36.093Z,13.7
2022-10-05T02:54:40.208Z,18.6
2022-10-05T02:56:47.668Z,9.5
2022-10-05T02:58:51.481Z,9.3
2022-10-05T03:00:55.654Z,14.3
2022-10-05T03:02:59.720Z,12.4
2022-10-05T03:05:03.830Z,23
2022-10-05T03:07:07.940Z,18.1
2022-10-05T03:09:12.049Z,8.5
2022-10-05T03:11:19.195Z,13.8
2022-10-05T03:13:23.307Z,6.8
2022-10-05T03:21:39.790Z,12.9
2022-10-05T03:25:52.561Z,12.8
2022-10-05T03:27:56.711Z,9.5
2022-10-05T03:30:00.796Z,9.9
2022-10-05T03:32:04.895Z,19.3
2022-10-05T03:34:09.002Z,12.7
2022-10-05T03:38:17.241Z,11
2022-10-05T03:40:24.373Z,14.2
2022-10-05T03:42:28.482Z,19.8
2022-10-05T03:44:32.584Z,11.7
2022-10-05T03:45:36.138Z,15
2022-10-05T03:47:40.256Z,9
2022-10-05T03:49:44.375Z,18.6
2022-10-05T03:51:48.501Z,9.5
2022-10-05T03:53:55.637Z,11
2022-10-05T03:55:59.732Z,25.7
2022-10-05T03:58:03.836Z,20.3
2022-10-05T04:00:07.945Z,15.8
2022-10-05T04:04:16.172Z,10.1
2022-10-05T04:06:20.430Z,12.2
2022-10-05T04:08:27.435Z,15
2022-10-05T04:10:31.559Z,14.6
2022-10-05T04:12:35.651Z,16.2
2022-10-05T04:14:39.755Z,13.4
2022-10-05T04:16:44.280Z,16.3
2022-10-05T04:18:47.980Z,13.5
2022-10-05T04:20:52.147Z,18.6
2022-10-05T04:22:59.256Z,14.1
2022-10-05T04:25:03.443Z,15.7
2022-10-05T04:27:07.491Z,17.8
2022-10-05T04:29:11.592Z,15.2
2022-10-05T04:31:15.793Z,9.4
2022-10-05T04:33:19.833Z,16.5
2022-10-05T04:35:23.948Z,9.7
2022-10-05T04:37:31.079Z,12.7
2022-10-05T04:39:35.165Z,10.2
2022-10-05T04:41:39.303Z,21
2022-10-05T04:44:01.676Z,15.4
2022-10-05T04:46:05.798Z,11.7
2022-10-05T04:48:09.925Z,22.4
2022-10-05T04:50:17.057Z,10.5
2022-10-05T04:52:21.181Z,13.7
2022-10-05T04:54:25.273Z,9.7
2022-10-05T04:56:29.554Z,10.3
2022-10-05T04:58:33.512Z,9.2
2022-10-05T05:00:37.677Z,13.9
2022-10-05T05:02:41.765Z,9.5
2022-10-05T05:04:51.882Z,8.8
2022-10-05T05:06:53.004Z,11.2
2022-10-05T05:08:57.120Z,14.2
2022-10-05T05:11:01.241Z,7.4
2022-10-05T05:13:05.363Z,7.5
2022-10-05T05:15:09.464Z,8.8
2022-10-05T05:17:13.601Z,6.6
2022-10-05T05:23:28.950Z,8.8
2022-10-05T05:25:33.076Z,12.9
2022-10-05T05:27:37.177Z,9.6
2022-10-05T05:29:41.307Z,12.9
2022-10-05T05:31:45.469Z,14.2
2022-10-05T05:33:52.532Z,9.7
2022-10-05T05:35:56.691Z,10.2
2022-10-05T05:38:00.793Z,12.2
2022-10-05T05:39:04.355Z,12
2022-10-05T05:41:08.456Z,11.3
2022-10-05T05:43:12.558Z,16
2022-10-05T05:45:16.682Z,9.7
2022-10-05T05:47:23.914Z,8.6
2022-10-05T05:49:27.950Z,16.2
2022-10-05T05:53:36.215Z,10.6
2022-10-05T05:55:40.303Z,8.4
2022-10-05T05:57:44.467Z,11.9
2022-10-05T05:59:48.557Z,12.2
2022-10-05T06:06:03.926Z,7.9
2022-10-05T06:08:08.030Z,14.2
2022-10-05T06:10:12.144Z,9.3
2022-10-05T06:12:16.253Z,9.9
2022-10-05T06:14:20.392Z,14.7
2022-10-05T06:18:31.627Z,7
2022-10-05T06:22:39.837Z,10.4
2022-10-05T06:24:43.960Z,10
2022-10-05T06:26:48.484Z,6.8
2022-10-05T06:28:52.189Z,9.1
2022-10-05T06:36:11.116Z,9.5
2022-10-05T06:38:15.216Z,6.3
2022-10-05T06:40:19.348Z,8.2
2022-10-05T06:42:23.478Z,10.2
2022-10-05T06:44:30.584Z,16
2022-10-05T06:46:34.693Z,8.6
2022-10-05T06:48:38.824Z,6.8
2022-10-05T06:50:42.938Z,10.2
2022-10-05T06:52:47.044Z,14.2
2022-10-05T06:54:51.194Z,9.7
2022-10-05T06:59:02.424Z,8.1
2022-10-05T07:01:06.578Z,11.3
2022-10-05T07:03:10.647Z,9.5
2022-10-05T07:09:23.003Z,9.1
2022-10-05T07:11:27.121Z,6.9
2022-10-05T07:13:34.259Z,6
2022-10-05T07:15:38.387Z,6.9
2022-10-05T07:17:42.492Z,10.3
2022-10-05T07:28:06.120Z,5.9
2022-10-05T07:30:10.209Z,7
2022-10-05T07:32:14.331Z,13.1
2022-10-05T07:33:17.896Z,4.7
2022-10-05T07:35:22.016Z,16
2022-10-05T07:37:26.180Z,4.7
2022-10-05T07:41:37.420Z,3.9
2022-10-05T07:44:01.070Z,7.4
2022-10-05T07:45:45.677Z,3.3
2022-10-05T07:47:49.800Z,5.7
2022-10-05T07:49:53.906Z,4.4
2022-10-05T07:51:58.017Z,9
2022-10-05T07:54:02.155Z,7.8
2022-10-05T07:56:09.297Z,5.1
2022-10-05T07:58:13.398Z,13.4
2022-10-05T08:02:21.844Z,3.1
2022-10-05T08:04:25.780Z,4.1
2022-10-05T08:06:30.086Z,3.6
2022-10-05T08:08:34.046Z,3.3
2022-10-05T08:10:41.178Z,4
2022-10-05T08:12:45.299Z,3.1
2022-10-05T08:14:49.402Z,4.3
2022-10-05T08:16:53.553Z,3.7
2022-10-05T08:18:57.688Z,4.5
2022-10-05T08:21:01.811Z,6.1
2022-10-05T08:23:05.937Z,6.2
2022-10-05T08:25:13.057Z,7.1
2022-10-05T08:27:17.196Z,6.4
2022-10-05T08:31:46.210Z,4
2022-10-05T08:35:54.019Z,8.9
2022-10-05T08:40:05.287Z,3.4
2022-10-05T08:42:09.417Z,4.2
2022-10-05T08:44:13.542Z,4.3
2022-10-05T08:48:21.790Z,9.8
2022-10-05T08:52:33.068Z,3.4
2022-10-05T08:54:37.203Z,3.3
2022-10-05T08:58:45.448Z,9.4
2022-10-05T09:02:53.751Z,3
2022-10-05T09:04:57.829Z,2.9
2022-10-05T09:15:25.927Z,3.3
2022-10-05T09:17:25.619Z,4.5
2022-10-05T09:21:38.474Z,2.6
2022-10-05T09:23:42.557Z,3.8
2022-10-05T09:25:46.690Z,2.7
2022-10-05T09:26:50.243Z,2.4
2022-10-05T09:28:54.392Z,2.7
2022-10-05T09:30:58.586Z,2.5
2022-10-05T09:33:02.650Z,4.3
2022-10-05T09:35:09.788Z,3.8
2022-10-05T09:37:13.952Z,5.2
2022-10-05T09:39:18.031Z,7.3
2022-10-05T09:41:22.159Z,5.9
2022-10-05T09:43:26.270Z,2.4
2022-10-05T09:45:30.409Z,1.2
2022-10-05T09:47:34.564Z,3.6
2022-10-05T09:49:41.690Z,2.2
2022-10-05T09:51:46.171Z,7
2022-10-05T09:55:54.115Z,9.3
2022-10-05T09:57:58.248Z,4.1
2022-10-05T10:00:02.640Z,3.2
2022-10-05T10:02:06.557Z,2.4
2022-10-05T10:04:13.672Z,2.9
2022-10-05T10:06:17.820Z,2.4
2022-10-05T10:08:21.955Z,2.7
2022-10-05T10:10:26.089Z,2.9
2022-10-05T10:12:30.221Z,1.2
2022-10-05T10:14:34.371Z,2.6
2022-10-05T10:16:38.486Z,2.4
2022-10-05T10:18:45.632Z,4
2022-10-05T10:20:49.771Z,8.8
2022-10-05T10:22:53.907Z,5.8
2022-10-05T10:23:57.501Z,2.7
2022-10-05T10:26:01.640Z,8.9
2022-10-05T10:28:05.829Z,5.5
2022-10-05T10:36:25.485Z,3.8
2022-10-05T10:38:29.470Z,6.8
2022-10-05T10:40:33.653Z,7.9
2022-10-05T10:42:37.769Z,2.9
2022-10-05T10:44:41.906Z,7
2022-10-05T10:46:49.383Z,5.9
2022-10-05T10:48:53.217Z,2.8
2022-10-05T10:50:57.368Z,4.2
2022-10-05T10:53:01.519Z,3.9
2022-10-05T10:55:05.640Z,9.2
2022-10-05T10:57:09.802Z,23.3
2022-10-05T10:59:13.930Z,3.2
2022-10-05T11:01:21.166Z,2.2
2022-10-05T11:03:25.240Z,5.2
2022-10-05T11:05:29.391Z,11.7
2022-10-05T11:07:33.529Z,1.7
2022-10-05T11:11:41.819Z,6.9
2022-10-05T11:13:45.933Z,2.1
2022-10-05T11:15:53.256Z,2.4
2022-10-05T11:17:57.254Z,2.7
2022-10-05T11:20:04.869Z,3.4
2022-10-05T11:21:04.958Z,4.4
2022-10-05T11:23:09.100Z,4.1
2022-10-05T11:25:13.256Z,4.7
2022-10-05T11:27:17.441Z,3.7
2022-10-05T11:29:24.547Z,1.7
2022-10-05T11:31:28.761Z,8.8
2022-10-05T11:33:32.834Z,6.5
2022-10-05T11:35:36.970Z,2.7
2022-10-05T11:37:41.093Z,6.7
2022-10-05T11:39:45.257Z,24.9
2022-10-05T11:41:49.757Z,6.9
2022-10-05T11:43:56.555Z,3.4
2022-10-05T11:46:00.809Z,2
2022-10-05T11:48:04.852Z,3
2022-10-05T11:50:08.961Z,3.2
2022-10-05T11:52:13.115Z,3.5
2022-10-05T11:54:17.256Z,5
2022-10-05T11:58:28.625Z,7.7
2022-10-05T12:00:32.694Z,7.9
2022-10-05T12:02:39.954Z,5.1
2022-10-05T12:04:41.619Z,1.4
2022-10-05T12:06:45.840Z,3.8
2022-10-05T12:10:53.956Z,6.4
2022-10-05T12:15:05.258Z,3
2022-10-05T12:17:09.405Z,4.8
2022-10-05T12:19:31.645Z,3.2
2022-10-05T12:21:35.804Z,3.7
2022-10-05T12:23:39.933Z,3.3
2022-10-05T12:25:47.086Z,3.4
2022-10-05T12:27:51.236Z,5.6
2022-10-05T12:29:55.365Z,3.5
2022-10-05T12:31:59.514Z,5.3
2022-10-05T12:34:03.689Z,3.9
2022-10-05T12:36:07.795Z,5.6
2022-10-05T12:40:19.085Z,2.1
2022-10-05T12:46:31.543Z,9.6
2022-10-05T12:48:35.684Z,2
2022-10-05T12:50:39.821Z,3.9
2022-10-05T12:54:51.121Z,6.2
2022-10-05T12:56:55.253Z,2.1
2022-10-05T12:58:59.397Z,3.1
2022-10-05T13:01:03.588Z,3.8
2022-10-05T13:03:07.707Z,3.8
2022-10-05T13:05:11.841Z,10.6
2022-10-05T13:07:15.972Z,1.8
2022-10-05T13:09:23.121Z,19.1
2022-10-05T13:11:27.262Z,4.7
2022-10-05T13:13:31.406Z,2.5
2022-10-05T13:18:43.285Z,2.1
2022-10-05T13:20:47.410Z,4.8
2022-10-05T13:22:54.578Z,1.1
2022-10-05T13:27:02.862Z,1.5
2022-10-05T13:29:07.008Z,5.2
2022-10-05T13:31:11.198Z,3.5
2022-10-05T13:33:15.309Z,6.9
2022-10-05T13:35:19.437Z,1.5
2022-10-05T13:37:26.579Z,2.1
2022-10-05T13:39:30.717Z,1.5
2022-10-05T13:41:34.859Z,1.9
2022-10-05T13:43:39.298Z,3
2022-10-05T13:45:43.234Z,7.2
2022-10-05T13:47:47.314Z,1.6
2022-10-05T13:49:51.443Z,2.2
2022-10-05T13:51:58.598Z,6
2022-10-05T13:54:02.749Z,5.5
2022-10-05T13:56:06.886Z,1.2
2022-10-05T13:58:11.030Z,8.6
2022-10-05T14:00:15.199Z,3.9
2022-10-05T14:02:19.343Z,3.3
2022-10-05T14:04:23.457Z,8.3
2022-10-05T14:06:30.799Z,2.9
2022-10-05T14:08:34.774Z,2.7
2022-10-05T14:11:42.503Z,2.6
2022-10-05T14:15:50.765Z,2.1
2022-10-05T14:17:54.936Z,2.2
2022-10-05T14:20:02.087Z,2
2022-10-05T14:22:06.226Z,3.7
2022-10-05T14:24:15.269Z,1.9
2022-10-05T14:26:14.515Z,3.4
2022-10-05T14:28:18.674Z,1.4
2022-10-05T14:30:22.796Z,3.4
2022-10-05T14:32:26.946Z,4.9
2022-10-05T14:34:34.093Z,3.1
2022-10-05T14:36:38.254Z,1.2
2022-10-05T14:38:42.372Z,3.1
2022-10-05T14:40:46.541Z,3.3
2022-10-05T14:42:50.685Z,3.1
2022-10-05T14:44:54.815Z,5.8
2022-10-05T14:46:59.038Z,1.5
2022-10-05T14:49:06.122Z,2.2
2022-10-05T14:51:10.281Z,5
2022-10-05T14:53:14.415Z,5
2022-10-05T14:55:18.545Z,4.1
2022-10-05T14:57:22.692Z,1.6
2022-10-05T14:59:26.858Z,1.1
2022-10-05T15:01:31.157Z,1.6
2022-10-05T15:03:38.136Z,7.7
2022-10-05T15:05:42.282Z,6.9
2022-10-05T15:07:46.444Z,4.3
2022-10-05T15:10:54.147Z,2.2
2022-10-05T15:12:58.303Z,1.3
2022-10-05T15:15:02.460Z,1.7
2022-10-05T15:17:09.606Z,3.7
2022-10-05T15:19:13.750Z,7
2022-10-05T15:21:19.459Z,7
2022-10-05T15:23:23.561Z,2.2
2022-10-05T15:25:27.714Z,1.8
2022-10-05T15:27:31.835Z,1.5
2022-10-05T15:29:35.971Z,4
2022-10-05T15:31:43.153Z,2.8
2022-10-05T15:33:47.292Z,6.2
2022-10-05T15:35:51.435Z,2.9
2022-10-05T15:37:55.570Z,7
2022-10-05T15:39:59.730Z,2.4
2022-10-05T15:42:03.865Z,3.7
2022-10-05T15:44:07.998Z,1.6
2022-10-05T15:46:15.197Z,4.5
2022-10-05T15:48:19.602Z,2.6
2022-10-05T15:50:23.473Z,8.3
2022-10-05T15:54:31.746Z,2
2022-10-05T15:58:40.033Z,2.6
2022-10-05T16:00:47.182Z,4
2022-10-05T16:02:51.425Z,7.2
2022-10-05T16:04:55.474Z,1.4
2022-10-05T16:07:19.670Z,2.1
2022-10-05T16:09:23.807Z,1.4
2022-10-05T16:11:27.960Z,3.8
2022-10-05T16:13:35.098Z,7.2
2022-10-05T16:15:39.273Z,2.7
2022-10-05T16:17:43.389Z,1.9
2022-10-05T16:19:47.544Z,7.3
2022-10-05T16:21:51.691Z,4.9
2022-10-05T16:23:55.827Z,3.8
2022-10-05T16:25:59.958Z,0.8
2022-10-05T16:28:07.184Z,3
2022-10-05T16:30:11.277Z,2.6
2022-10-05T16:32:15.423Z,10.1
2022-10-05T16:34:19.542Z,1.8
2022-10-05T16:36:23.713Z,10.1
2022-10-05T16:38:27.840Z,9.4
2022-10-05T16:40:31.999Z,1.3
2022-10-05T16:42:39.145Z,3
2022-10-05T16:44:43.282Z,1.6
2022-10-05T16:46:47.456Z,3.8
2022-10-05T16:48:51.578Z,3.8
2022-10-05T16:50:55.698Z,1.6
2022-10-05T16:52:59.862Z,3.4
2022-10-05T17:02:23.053Z,1.5
2022-10-05T17:04:27.181Z,3.9
2022-10-05T17:06:31.317Z,10.4
2022-10-05T17:08:35.462Z,2.3
2022-10-05T17:10:42.599Z,5.7
2022-10-05T17:12:46.736Z,2.6
2022-10-05T17:14:50.887Z,9.4
2022-10-05T17:16:55.046Z,13.3
2022-10-05T17:21:03.323Z,9.2
2022-10-05T17:23:07.438Z,1.8
2022-10-05T17:27:18.744Z,1.3
2022-10-05T17:29:22.881Z,8.1
2022-10-05T17:35:35.304Z,2.2
2022-10-05T17:43:54.890Z,8.7
2022-10-05T17:45:59.102Z,3
2022-10-05T17:48:03.211Z,1.3
2022-10-05T17:50:07.325Z,7.7
2022-10-05T17:52:11.456Z,2.5
2022-10-05T17:54:18.622Z,0.9
2022-10-05T17:56:22.772Z,4.4
2022-10-05T17:58:27.288Z,9.9
2022-10-05T18:01:34.727Z,3.8
2022-10-05T18:03:38.749Z,3.2
2022-10-05T18:05:42.896Z,7.6
2022-10-05T18:07:50.070Z,4.2
2022-10-05T18:09:54.206Z,3.1
2022-10-05T18:11:58.364Z,3.1
2022-10-05T18:14:02.509Z,1.6
2022-10-05T18:16:06.676Z,2.5
2022-10-05T18:18:10.791Z,7.4
2022-10-05T18:20:14.908Z,5.3
2022-10-05T18:22:22.066Z,7.7
2022-10-05T18:24:26.254Z,2.2
2022-10-05T18:26:30.364Z,2.6
2022-10-05T18:28:34.593Z,5.9
2022-10-05T18:30:38.653Z,1.9
2022-10-05T18:32:42.768Z,1.4
2022-10-05T18:34:46.936Z,6.1
2022-10-05T18:41:02.386Z,1.5
2022-10-05T18:43:06.525Z,4
2022-10-05T18:45:10.669Z,2.6
2022-10-05T18:47:14.814Z,2.8
2022-10-05T18:49:18.927Z,3.3
2022-10-05T18:51:26.101Z,1.4
2022-10-05T18:53:30.242Z,1.8
2022-10-05T18:55:34.406Z,5.6
2022-10-05T18:56:37.950Z,2.4
2022-10-05T18:58:42.106Z,7.5
2022-10-05T19:00:46.243Z,3.8
2022-10-05T19:04:57.526Z,8.7
2022-10-05T19:07:01.665Z,1.7
2022-10-05T19:09:05.824Z,3.6
2022-10-05T19:11:09.995Z,5.2
2022-10-05T19:13:14.121Z,2.6
2022-10-05T19:15:18.251Z,1.3
2022-10-05T19:17:22.391Z,1.6
2022-10-05T19:19:33.084Z,1.7
2022-10-05T19:21:33.695Z,1.9
2022-10-05T19:23:37.841Z,2.8
2022-10-05T19:25:41.961Z,8.8
2022-10-05T19:27:46.096Z,3.2
2022-10-05T19:29:50.238Z,4.5
2022-10-05T19:34:01.572Z,2.6
2022-10-05T19:36:05.696Z,5.7
2022-10-05T19:38:14.486Z,4.8
2022-10-05T19:40:13.998Z,3.3
2022-10-05T19:42:18.110Z,3.2
2022-10-05T19:44:22.261Z,1.7
2022-10-05T19:46:26.435Z,6
2022-10-05T19:48:33.582Z,3.3
2022-10-05T19:50:37.690Z,1.9
2022-10-05T19:52:45.139Z,7.9
2022-10-05T19:55:04.325Z,5.3
2022-10-05T19:57:08.471Z,6.5
2022-10-05T19:59:12.607Z,2.5
2022-10-05T20:03:23.887Z,1.5
2022-10-05T20:05:28.019Z,2.9
2022-10-05T20:07:32.180Z,4.1
2022-10-05T20:09:36.304Z,2.2
2022-10-05T20:11:40.456Z,2.2
2022-10-05T20:13:44.597Z,3.7
2022-10-05T20:15:51.771Z,4.4
2022-10-05T20:17:55.879Z,2.8
2022-10-05T20:20:00.034Z,0.9
2022-10-05T20:22:04.167Z,2.1
2022-10-05T20:24:08.310Z,0.1
2022-10-05T20:28:16.630Z,3.6
2022-10-05T20:30:23.717Z,1.3
2022-10-05T20:34:31.994Z,0.2
2022-10-05T20:40:44.373Z,0.8
2022-10-05T20:42:48.498Z,8.7
2022-10-05T20:44:56.950Z,0.7
2022-10-05T20:46:59.828Z,0.3
2022-10-05T20:49:03.863Z,1.1
2022-10-05T20:50:07.428Z,0.6
2022-10-05T20:52:11.532Z,0.8
2022-10-05T20:54:15.645Z,0.5
2022-10-05T20:56:19.771Z,3.3
2022-10-05T20:58:27.295Z,1.1
2022-10-05T21:00:34.071Z,0.5
2022-10-05T21:02:35.098Z,0.4
2022-10-05T21:06:43.316Z,2.7
2022-10-05T21:10:51.522Z,5.6
2022-10-05T21:12:58.639Z,1.8
2022-10-05T21:15:02.747Z,1.4
2022-10-05T21:17:06.830Z,3.8
2022-10-05T21:19:12.514Z,3.5
2022-10-05T21:21:16.600Z,13.5
2022-10-05T21:23:20.683Z,3.8
2022-10-05T21:25:24.788Z,4.8
2022-10-05T21:27:31.890Z,2.1
2022-10-05T21:29:35.997Z,2
2022-10-05T21:31:40.230Z,1.7
2022-10-05T21:33:44.231Z,2.3
2022-10-05T21:35:48.313Z,3.6
2022-10-05T21:37:52.402Z,1.7
2022-10-05T21:39:56.517Z,2.5
2022-10-05T21:42:03.648Z,6.7
2022-10-05T21:44:07.739Z,2.2
2022-10-05T21:46:11.871Z,3.2
2022-10-05T21:47:15.387Z,2.9
2022-10-05T21:51:23.596Z,2.6
2022-10-05T21:53:27.694Z,8.9
2022-10-05T21:55:34.800Z,2.1
2022-10-05T21:57:38.887Z,4.8
2022-10-05T21:59:42.997Z,5.3
2022-10-05T22:01:47.108Z,2.1
2022-10-05T22:03:51.215Z,4.5
2022-10-05T22:05:55.353Z,4.8
2022-10-05T22:07:59.401Z,2
2022-10-05T22:10:06.497Z,3.9
2022-10-05T22:12:10.599Z,2.1
2022-10-05T22:14:14.722Z,3.5
2022-10-05T22:16:18.865Z,1.9
2022-10-05T22:18:22.918Z,1.5
2022-10-05T22:20:27.015Z,7.7
2022-10-05T22:22:31.097Z,0.9
2022-10-05T22:24:38.214Z,1
2022-10-05T22:26:42.312Z,2.5
2022-10-05T22:28:46.489Z,6
2022-10-05T22:30:50.511Z,0.6
2022-10-05T22:32:54.598Z,3.8
2022-10-05T22:37:02.799Z,0.6
2022-10-05T22:39:09.886Z,3.1
2022-10-05T22:41:14.123Z,3.7
2022-10-05T22:43:18.082Z,0.5
2022-10-05T22:44:21.645Z,0.5
2022-10-05T22:50:33.907Z,5.3
2022-10-05T22:52:41.011Z,7.9
2022-10-05T22:54:45.104Z,4.4
2022-10-05T22:56:49.192Z,1.8
2022-10-05T22:58:53.286Z,3.9
2022-10-05T23:00:58.764Z,10.7
2022-10-05T23:03:01.453Z,2.6
2022-10-05T23:05:05.529Z,2.4
2022-10-05T23:09:16.704Z,6.4
2022-10-05T23:11:20.800Z,7.1
2022-10-05T23:13:24.888Z,8.6
2022-10-05T23:17:33.026Z,11.6
2022-10-05T23:19:37.117Z,15.6
2022-10-05T23:23:48.289Z,22.9
2022-10-05T23:27:56.541Z,28.2
2022-10-05T23:30:00.537Z,26.9
2022-10-05T23:32:04.624Z,28.7
2022-10-05T23:34:08.693Z,27.7
2022-10-05T23:36:15.779Z,34.1
2022-10-05T23:38:19.866Z,31.5
2022-10-05T23:40:23.929Z,27.9
2022-10-05T23:42:47.931Z,38.7
2022-10-05T23:44:52.026Z,38.3
2022-10-05T23:46:56.099Z,35.7
2022-10-05T23:49:03.209Z,33
2022-10-05T23:51:07.290Z,30.7
2022-10-05T23:53:11.343Z,26.8
2022-10-05T23:55:15.444Z,23.6
2022-10-05T23:57:19.531Z,21
2022-10-05T23:59:23.600Z,16.6
